sensor_id;sensor_type;location;lat;lon;timestamp;P1;durP1;ratioP1;P2;durP2;ratioP2
50417;SDS011;36346;48.280;14.292;2024-01-30T00:01:20;34.40;;;34.17;;
50417;SDS011;36346;48.280;14.292;2024-01-30T00:03:48;35.16;;;35.01;;
50417;SDS011;36346;48.280;14.292;2024-01-30T00:06:18;34.86;;;34.59;;
50417;SDS011;36346;48.280;14.292;2024-01-30T00:08:48;36.16;;;35.90;;
50417;SDS011;36346;48.280;14.292;2024-01-30T00:11:16;36.08;;;35.82;;
50417;SDS011;36346;48.280;14.292;2024-01-30T00:13:44;35.41;;;35.23;;
50417;SDS011;36346;48.280;14.292;2024-01-30T00:16:20;37.00;;;36.83;;
50417;SDS011;36346;48.280;14.292;2024-01-30T00:18:50;38.10;;;37.86;;
50417;SDS011;36346;48.280;14.292;2024-01-30T00:21:18;37.93;;;37.60;;
50417;SDS011;36346;48.280;14.292;2024-01-30T00:23:46;38.26;;;37.81;;
50417;SDS011;36346;48.280;14.292;2024-01-30T00:26:15;38.13;;;37.62;;
50417;SDS011;36346;48.280;14.292;2024-01-30T00:28:43;38.84;;;38.51;;
50417;SDS011;36346;48.280;14.292;2024-01-30T00:31:11;38.10;;;37.73;;
50417;SDS011;36346;48.280;14.292;2024-01-30T00:33:40;38.58;;;38.35;;
50417;SDS011;36346;48.280;14.292;2024-01-30T00:36:09;39.02;;;38.71;;
50417;SDS011;36346;48.280;14.292;2024-01-30T00:38:37;38.60;;;38.40;;
50417;SDS011;36346;48.280;14.292;2024-01-30T00:41:06;37.97;;;37.67;;
50417;SDS011;36346;48.280;14.292;2024-01-30T00:43:35;38.91;;;38.61;;
50417;SDS011;36346;48.280;14.292;2024-01-30T00:46:03;38.08;;;37.66;;
50417;SDS011;36346;48.280;14.292;2024-01-30T00:48:31;38.41;;;38.02;;
50417;SDS011;36346;48.280;14.292;2024-01-30T00:50:59;38.84;;;38.41;;
50417;SDS011;36346;48.280;14.292;2024-01-30T00:53:27;38.13;;;37.81;;
50417;SDS011;36346;48.280;14.292;2024-01-30T00:55:55;37.68;;;37.28;;
50417;SDS011;36346;48.280;14.292;2024-01-30T00:58:23;38.08;;;37.81;;
50417;SDS011;36346;48.280;14.292;2024-01-30T01:00:51;38.12;;;37.76;;
50417;SDS011;36346;48.280;14.292;2024-01-30T01:03:19;37.58;;;37.23;;
50417;SDS011;36346;48.280;14.292;2024-01-30T01:05:47;37.42;;;36.98;;
50417;SDS011;36346;48.280;14.292;2024-01-30T01:08:15;36.89;;;36.56;;
50417;SDS011;36346;48.280;14.292;2024-01-30T01:10:43;36.89;;;36.53;;
50417;SDS011;36346;48.280;14.292;2024-01-30T01:13:11;37.53;;;37.17;;
50417;SDS011;36346;48.280;14.292;2024-01-30T01:15:39;37.28;;;37.08;;
50417;SDS011;36346;48.280;14.292;2024-01-30T01:18:07;37.74;;;37.48;;
50417;SDS011;36346;48.280;14.292;2024-01-30T01:20:35;38.52;;;38.13;;
50417;SDS011;36346;48.280;14.292;2024-01-30T01:23:03;37.84;;;37.65;;
50417;SDS011;36346;48.280;14.292;2024-01-30T01:25:31;38.27;;;38.04;;
50417;SDS011;36346;48.280;14.292;2024-01-30T01:27:59;39.10;;;38.88;;
50417;SDS011;36346;48.280;14.292;2024-01-30T01:30:29;38.82;;;38.56;;
50417;SDS011;36346;48.280;14.292;2024-01-30T01:32:57;39.33;;;38.96;;
50417;SDS011;36346;48.280;14.292;2024-01-30T01:35:28;38.66;;;38.42;;
50417;SDS011;36346;48.280;14.292;2024-01-30T01:37:57;39.78;;;39.53;;
50417;SDS011;36346;48.280;14.292;2024-01-30T01:40:27;38.86;;;38.52;;
50417;SDS011;36346;48.280;14.292;2024-01-30T01:42:55;38.82;;;38.56;;
50417;SDS011;36346;48.280;14.292;2024-01-30T01:45:24;40.17;;;39.69;;
50417;SDS011;36346;48.280;14.292;2024-01-30T01:47:52;38.10;;;37.71;;
50417;SDS011;36346;48.280;14.292;2024-01-30T01:50:21;38.10;;;37.68;;
50417;SDS011;36346;48.280;14.292;2024-01-30T01:52:50;38.82;;;38.44;;
50417;SDS011;36346;48.280;14.292;2024-01-30T01:55:19;38.78;;;38.48;;
50417;SDS011;36346;48.280;14.292;2024-01-30T01:57:53;38.62;;;38.23;;
50417;SDS011;36346;48.280;14.292;2024-01-30T02:00:21;39.01;;;38.72;;
50417;SDS011;36346;48.280;14.292;2024-01-30T02:02:50;38.20;;;37.73;;
50417;SDS011;36346;48.280;14.292;2024-01-30T02:05:18;38.63;;;38.19;;
50417;SDS011;36346;48.280;14.292;2024-01-30T02:07:47;37.75;;;37.41;;
50417;SDS011;36346;48.280;14.292;2024-01-30T02:10:15;37.40;;;36.99;;
50417;SDS011;36346;48.280;14.292;2024-01-30T02:12:44;38.06;;;37.65;;
50417;SDS011;36346;48.280;14.292;2024-01-30T02:15:15;37.91;;;37.58;;
50417;SDS011;36346;48.280;14.292;2024-01-30T02:17:43;37.71;;;37.34;;
50417;SDS011;36346;48.280;14.292;2024-01-30T02:20:11;37.97;;;37.61;;
50417;SDS011;36346;48.280;14.292;2024-01-30T02:22:40;38.66;;;38.37;;
50417;SDS011;36346;48.280;14.292;2024-01-30T02:25:09;38.27;;;37.90;;
50417;SDS011;36346;48.280;14.292;2024-01-30T02:27:37;39.04;;;38.69;;
50417;SDS011;36346;48.280;14.292;2024-01-30T02:30:06;38.94;;;38.61;;
50417;SDS011;36346;48.280;14.292;2024-01-30T02:32:34;38.23;;;37.99;;
50417;SDS011;36346;48.280;14.292;2024-01-30T02:35:02;41.03;;;40.59;;
50417;SDS011;36346;48.280;14.292;2024-01-30T02:37:31;40.18;;;39.78;;
50417;SDS011;36346;48.280;14.292;2024-01-30T02:39:59;41.24;;;40.53;;
50417;SDS011;36346;48.280;14.292;2024-01-30T02:42:27;39.99;;;39.74;;
50417;SDS011;36346;48.280;14.292;2024-01-30T02:44:55;40.42;;;40.02;;
50417;SDS011;36346;48.280;14.292;2024-01-30T02:47:23;40.05;;;39.83;;
50417;SDS011;36346;48.280;14.292;2024-01-30T02:49:50;40.20;;;39.85;;
50417;SDS011;36346;48.280;14.292;2024-01-30T02:52:22;40.36;;;40.10;;
50417;SDS011;36346;48.280;14.292;2024-01-30T02:54:50;39.75;;;39.35;;
50417;SDS011;36346;48.280;14.292;2024-01-30T02:57:18;40.64;;;40.26;;
50417;SDS011;36346;48.280;14.292;2024-01-30T02:59:46;39.91;;;39.59;;
50417;SDS011;36346;48.280;14.292;2024-01-30T03:02:14;40.82;;;40.38;;
50417;SDS011;36346;48.280;14.292;2024-01-30T03:04:42;39.97;;;39.46;;
50417;SDS011;36346;48.280;14.292;2024-01-30T03:07:10;39.45;;;39.14;;
50417;SDS011;36346;48.280;14.292;2024-01-30T03:09:39;38.56;;;38.19;;
50417;SDS011;36346;48.280;14.292;2024-01-30T03:12:11;40.55;;;40.27;;
50417;SDS011;36346;48.280;14.292;2024-01-30T03:14:39;41.01;;;40.59;;
50417;SDS011;36346;48.280;14.292;2024-01-30T03:17:07;41.42;;;40.96;;
50417;SDS011;36346;48.280;14.292;2024-01-30T03:19:35;40.46;;;40.13;;
50417;SDS011;36346;48.280;14.292;2024-01-30T03:22:03;40.72;;;40.39;;
50417;SDS011;36346;48.280;14.292;2024-01-30T03:24:32;40.23;;;39.83;;
50417;SDS011;36346;48.280;14.292;2024-01-30T03:27:00;40.51;;;40.07;;
50417;SDS011;36346;48.280;14.292;2024-01-30T03:29:28;40.15;;;39.64;;
50417;SDS011;36346;48.280;14.292;2024-01-30T03:31:56;40.86;;;40.40;;
50417;SDS011;36346;48.280;14.292;2024-01-30T03:34:23;40.35;;;39.96;;
50417;SDS011;36346;48.280;14.292;2024-01-30T03:36:52;40.00;;;39.75;;
50417;SDS011;36346;48.280;14.292;2024-01-30T03:39:20;39.96;;;39.66;;
50417;SDS011;36346;48.280;14.292;2024-01-30T03:41:48;39.97;;;39.67;;
50417;SDS011;36346;48.280;14.292;2024-01-30T03:44:16;39.04;;;38.64;;
50417;SDS011;36346;48.280;14.292;2024-01-30T03:46:44;40.28;;;39.99;;
50417;SDS011;36346;48.280;14.292;2024-01-30T03:49:12;40.15;;;39.73;;
50417;SDS011;36346;48.280;14.292;2024-01-30T03:51:40;39.89;;;39.62;;
50417;SDS011;36346;48.280;14.292;2024-01-30T03:54:08;40.05;;;39.61;;
50417;SDS011;36346;48.280;14.292;2024-01-30T03:56:36;39.93;;;39.47;;
50417;SDS011;36346;48.280;14.292;2024-01-30T03:59:04;39.24;;;38.91;;
50417;SDS011;36346;48.280;14.292;2024-01-30T04:01:32;40.73;;;40.08;;
50417;SDS011;36346;48.280;14.292;2024-01-30T04:04:00;39.93;;;39.65;;
50417;SDS011;36346;48.280;14.292;2024-01-30T04:06:28;39.19;;;39.01;;
50417;SDS011;36346;48.280;14.292;2024-01-30T04:08:56;39.20;;;38.97;;
50417;SDS011;36346;48.280;14.292;2024-01-30T04:11:24;40.01;;;39.63;;
50417;SDS011;36346;48.280;14.292;2024-01-30T04:13:52;39.46;;;39.19;;
50417;SDS011;36346;48.280;14.292;2024-01-30T04:16:21;39.65;;;39.24;;
50417;SDS011;36346;48.280;14.292;2024-01-30T04:18:51;40.15;;;39.79;;
50417;SDS011;36346;48.280;14.292;2024-01-30T04:21:23;38.73;;;38.38;;
50417;SDS011;36346;48.280;14.292;2024-01-30T04:23:51;38.70;;;38.26;;
50417;SDS011;36346;48.280;14.292;2024-01-30T04:26:19;38.96;;;38.61;;
50417;SDS011;36346;48.280;14.292;2024-01-30T04:28:47;38.28;;;37.97;;
50417;SDS011;36346;48.280;14.292;2024-01-30T04:31:15;37.31;;;37.05;;
50417;SDS011;36346;48.280;14.292;2024-01-30T04:33:43;39.37;;;38.92;;
50417;SDS011;36346;48.280;14.292;2024-01-30T04:36:11;37.96;;;37.53;;
50417;SDS011;36346;48.280;14.292;2024-01-30T04:38:39;38.07;;;37.69;;
50417;SDS011;36346;48.280;14.292;2024-01-30T04:41:07;36.47;;;36.16;;
50417;SDS011;36346;48.280;14.292;2024-01-30T04:43:35;36.89;;;36.56;;
50417;SDS011;36346;48.280;14.292;2024-01-30T04:46:04;37.81;;;37.54;;
50417;SDS011;36346;48.280;14.292;2024-01-30T04:48:32;37.76;;;37.57;;
50417;SDS011;36346;48.280;14.292;2024-01-30T04:51:00;38.00;;;37.68;;
50417;SDS011;36346;48.280;14.292;2024-01-30T04:53:30;37.45;;;37.12;;
50417;SDS011;36346;48.280;14.292;2024-01-30T04:55:58;38.01;;;37.90;;
50417;SDS011;36346;48.280;14.292;2024-01-30T04:58:26;36.95;;;36.66;;
50417;SDS011;36346;48.280;14.292;2024-01-30T05:00:54;36.73;;;36.45;;
50417;SDS011;36346;48.280;14.292;2024-01-30T05:03:25;37.07;;;36.84;;
50417;SDS011;36346;48.280;14.292;2024-01-30T05:05:53;37.91;;;37.49;;
50417;SDS011;36346;48.280;14.292;2024-01-30T05:08:21;37.93;;;37.64;;
50417;SDS011;36346;48.280;14.292;2024-01-30T05:10:49;38.47;;;38.04;;
50417;SDS011;36346;48.280;14.292;2024-01-30T05:13:17;37.55;;;37.19;;
50417;SDS011;36346;48.280;14.292;2024-01-30T05:15:45;38.08;;;37.81;;
50417;SDS011;36346;48.280;14.292;2024-01-30T05:18:13;38.02;;;37.62;;
50417;SDS011;36346;48.280;14.292;2024-01-30T05:20:41;37.37;;;37.04;;
50417;SDS011;36346;48.280;14.292;2024-01-30T05:23:09;37.38;;;37.11;;
50417;SDS011;36346;48.280;14.292;2024-01-30T05:25:37;36.51;;;36.34;;
50417;SDS011;36346;48.280;14.292;2024-01-30T05:28:05;37.35;;;37.12;;
50417;SDS011;36346;48.280;14.292;2024-01-30T05:30:33;37.07;;;36.94;;
50417;SDS011;36346;48.280;14.292;2024-01-30T05:33:01;37.21;;;36.94;;
50417;SDS011;36346;48.280;14.292;2024-01-30T05:35:29;37.38;;;37.17;;
50417;SDS011;36346;48.280;14.292;2024-01-30T05:37:57;37.34;;;36.99;;
50417;SDS011;36346;48.280;14.292;2024-01-30T05:40:25;38.70;;;38.38;;
50417;SDS011;36346;48.280;14.292;2024-01-30T05:42:53;39.60;;;39.25;;
50417;SDS011;36346;48.280;14.292;2024-01-30T05:45:21;41.29;;;40.77;;
50417;SDS011;36346;48.280;14.292;2024-01-30T05:47:50;42.88;;;42.59;;
50417;SDS011;36346;48.280;14.292;2024-01-30T05:50:21;42.10;;;41.49;;
50417;SDS011;36346;48.280;14.292;2024-01-30T05:52:51;43.03;;;42.65;;
50417;SDS011;36346;48.280;14.292;2024-01-30T05:55:19;41.09;;;40.67;;
50417;SDS011;36346;48.280;14.292;2024-01-30T05:57:47;39.03;;;38.85;;
50417;SDS011;36346;48.280;14.292;2024-01-30T06:00:15;39.39;;;39.22;;
50417;SDS011;36346;48.280;14.292;2024-01-30T06:02:43;38.56;;;38.33;;
50417;SDS011;36346;48.280;14.292;2024-01-30T06:05:11;37.24;;;36.97;;
50417;SDS011;36346;48.280;14.292;2024-01-30T06:07:39;37.99;;;37.66;;
50417;SDS011;36346;48.280;14.292;2024-01-30T06:10:08;37.21;;;37.16;;
50417;SDS011;36346;48.280;14.292;2024-01-30T06:12:36;35.58;;;35.46;;
50417;SDS011;36346;48.280;14.292;2024-01-30T06:15:04;36.45;;;36.32;;
50417;SDS011;36346;48.280;14.292;2024-01-30T06:17:32;38.67;;;38.46;;
50417;SDS011;36346;48.280;14.292;2024-01-30T06:20:01;39.30;;;39.17;;
50417;SDS011;36346;48.280;14.292;2024-01-30T06:22:29;37.80;;;37.64;;
50417;SDS011;36346;48.280;14.292;2024-01-30T06:24:57;37.70;;;37.52;;
50417;SDS011;36346;48.280;14.292;2024-01-30T06:27:25;37.33;;;37.09;;
50417;SDS011;36346;48.280;14.292;2024-01-30T06:29:53;36.99;;;36.82;;
50417;SDS011;36346;48.280;14.292;2024-01-30T06:32:21;36.03;;;35.96;;
50417;SDS011;36346;48.280;14.292;2024-01-30T06:34:48;34.90;;;34.78;;
50417;SDS011;36346;48.280;14.292;2024-01-30T06:37:17;34.71;;;34.52;;
50417;SDS011;36346;48.280;14.292;2024-01-30T06:39:45;34.21;;;34.06;;
50417;SDS011;36346;48.280;14.292;2024-01-30T06:42:13;32.71;;;32.61;;
50417;SDS011;36346;48.280;14.292;2024-01-30T06:44:41;31.72;;;31.63;;
50417;SDS011;36346;48.280;14.292;2024-01-30T06:47:09;33.24;;;33.03;;
50417;SDS011;36346;48.280;14.292;2024-01-30T06:49:38;32.64;;;32.50;;
50417;SDS011;36346;48.280;14.292;2024-01-30T06:52:06;33.02;;;32.78;;
50417;SDS011;36346;48.280;14.292;2024-01-30T06:54:34;32.50;;;32.37;;
50417;SDS011;36346;48.280;14.292;2024-01-30T06:57:02;30.35;;;30.29;;
50417;SDS011;36346;48.280;14.292;2024-01-30T06:59:31;30.62;;;30.49;;
50417;SDS011;36346;48.280;14.292;2024-01-30T07:01:59;30.48;;;30.34;;
50417;SDS011;36346;48.280;14.292;2024-01-30T07:04:27;30.16;;;30.02;;
50417;SDS011;36346;48.280;14.292;2024-01-30T07:06:55;30.95;;;30.69;;
50417;SDS011;36346;48.280;14.292;2024-01-30T07:09:23;29.92;;;29.83;;
50417;SDS011;36346;48.280;14.292;2024-01-30T07:11:53;29.75;;;29.55;;
50417;SDS011;36346;48.280;14.292;2024-01-30T07:14:21;28.43;;;28.24;;
50417;SDS011;36346;48.280;14.292;2024-01-30T07:16:49;28.02;;;28.01;;
50417;SDS011;36346;48.280;14.292;2024-01-30T07:19:17;27.32;;;27.30;;
50417;SDS011;36346;48.280;14.292;2024-01-30T07:21:46;27.79;;;27.61;;
50417;SDS011;36346;48.280;14.292;2024-01-30T07:24:14;27.50;;;27.39;;
50417;SDS011;36346;48.280;14.292;2024-01-30T07:26:42;28.59;;;28.53;;
50417;SDS011;36346;48.280;14.292;2024-01-30T07:29:10;29.08;;;28.98;;
50417;SDS011;36346;48.280;14.292;2024-01-30T07:31:37;29.61;;;29.45;;
50417;SDS011;36346;48.280;14.292;2024-01-30T07:34:06;29.91;;;29.74;;
50417;SDS011;36346;48.280;14.292;2024-01-30T07:36:34;30.65;;;30.38;;
50417;SDS011;36346;48.280;14.292;2024-01-30T07:39:02;31.70;;;31.47;;
50417;SDS011;36346;48.280;14.292;2024-01-30T07:41:30;32.70;;;32.43;;
50417;SDS011;36346;48.280;14.292;2024-01-30T07:43:58;33.34;;;32.97;;
50417;SDS011;36346;48.280;14.292;2024-01-30T07:46:26;33.48;;;33.25;;
50417;SDS011;36346;48.280;14.292;2024-01-30T07:48:54;33.93;;;33.68;;
50417;SDS011;36346;48.280;14.292;2024-01-30T07:51:23;33.51;;;33.19;;
50417;SDS011;36346;48.280;14.292;2024-01-30T07:53:51;34.38;;;34.10;;
50417;SDS011;36346;48.280;14.292;2024-01-30T07:56:19;33.13;;;33.00;;
50417;SDS011;36346;48.280;14.292;2024-01-30T07:58:47;34.04;;;33.76;;
50417;SDS011;36346;48.280;14.292;2024-01-30T08:01:15;34.53;;;34.10;;
50417;SDS011;36346;48.280;14.292;2024-01-30T08:03:43;34.83;;;34.37;;
50417;SDS011;36346;48.280;14.292;2024-01-30T08:06:12;34.74;;;34.48;;
50417;SDS011;36346;48.280;14.292;2024-01-30T08:08:40;34.69;;;34.35;;
50417;SDS011;36346;48.280;14.292;2024-01-30T08:11:08;36.05;;;35.61;;
50417;SDS011;36346;48.280;14.292;2024-01-30T08:13:36;34.94;;;34.56;;
50417;SDS011;36346;48.280;14.292;2024-01-30T08:16:04;35.93;;;35.48;;
50417;SDS011;36346;48.280;14.292;2024-01-30T08:18:32;36.29;;;35.82;;
50417;SDS011;36346;48.280;14.292;2024-01-30T08:21:00;36.40;;;36.06;;
50417;SDS011;36346;48.280;14.292;2024-01-30T08:23:28;36.37;;;35.90;;
50417;SDS011;36346;48.280;14.292;2024-01-30T08:25:56;36.48;;;35.83;;
50417;SDS011;36346;48.280;14.292;2024-01-30T08:28:24;37.56;;;37.05;;
50417;SDS011;36346;48.280;14.292;2024-01-30T08:30:54;38.17;;;37.47;;
50417;SDS011;36346;48.280;14.292;2024-01-30T08:33:22;37.46;;;37.08;;
50417;SDS011;36346;48.280;14.292;2024-01-30T08:35:49;36.57;;;36.17;;
50417;SDS011;36346;48.280;14.292;2024-01-30T08:38:17;37.46;;;36.85;;
50417;SDS011;36346;48.280;14.292;2024-01-30T08:40:46;37.35;;;36.91;;
50417;SDS011;36346;48.280;14.292;2024-01-30T08:43:14;36.31;;;35.99;;
50417;SDS011;36346;48.280;14.292;2024-01-30T08:45:42;36.37;;;36.00;;
50417;SDS011;36346;48.280;14.292;2024-01-30T08:48:11;35.47;;;35.09;;
50417;SDS011;36346;48.280;14.292;2024-01-30T08:50:39;35.61;;;35.18;;
50417;SDS011;36346;48.280;14.292;2024-01-30T08:53:07;34.75;;;34.40;;
50417;SDS011;36346;48.280;14.292;2024-01-30T08:55:35;35.71;;;35.35;;
50417;SDS011;36346;48.280;14.292;2024-01-30T08:58:03;35.77;;;35.58;;
50417;SDS011;36346;48.280;14.292;2024-01-30T09:00:32;35.55;;;35.19;;
50417;SDS011;36346;48.280;14.292;2024-01-30T09:03:01;35.84;;;35.51;;
50417;SDS011;36346;48.280;14.292;2024-01-30T09:05:29;36.24;;;35.85;;
50417;SDS011;36346;48.280;14.292;2024-01-30T09:07:57;36.68;;;36.22;;
50417;SDS011;36346;48.280;14.292;2024-01-30T09:10:25;37.10;;;36.65;;
50417;SDS011;36346;48.280;14.292;2024-01-30T09:12:53;37.96;;;37.62;;
50417;SDS011;36346;48.280;14.292;2024-01-30T09:15:21;36.70;;;36.31;;
50417;SDS011;36346;48.280;14.292;2024-01-30T09:17:53;37.70;;;37.24;;
50417;SDS011;36346;48.280;14.292;2024-01-30T09:20:21;37.84;;;37.39;;
50417;SDS011;36346;48.280;14.292;2024-01-30T09:22:49;37.76;;;37.24;;
50417;SDS011;36346;48.280;14.292;2024-01-30T09:25:17;37.74;;;37.12;;
50417;SDS011;36346;48.280;14.292;2024-01-30T09:27:46;38.16;;;37.81;;
50417;SDS011;36346;48.280;14.292;2024-01-30T09:30:14;37.10;;;36.55;;
50417;SDS011;36346;48.280;14.292;2024-01-30T09:32:42;37.05;;;36.60;;
50417;SDS011;36346;48.280;14.292;2024-01-30T09:35:11;37.41;;;36.82;;
50417;SDS011;36346;48.280;14.292;2024-01-30T09:37:39;36.99;;;36.56;;
50417;SDS011;36346;48.280;14.292;2024-01-30T09:40:07;36.52;;;36.07;;
50417;SDS011;36346;48.280;14.292;2024-01-30T09:42:36;37.73;;;37.07;;
50417;SDS011;36346;48.280;14.292;2024-01-30T09:45:05;36.31;;;35.90;;
50417;SDS011;36346;48.280;14.292;2024-01-30T09:47:40;37.30;;;36.77;;
50417;SDS011;36346;48.280;14.292;2024-01-30T09:50:11;37.51;;;37.04;;
50417;SDS011;36346;48.280;14.292;2024-01-30T09:52:46;38.87;;;38.23;;
50417;SDS011;36346;48.280;14.292;2024-01-30T09:55:15;37.87;;;37.43;;
50417;SDS011;36346;48.280;14.292;2024-01-30T09:57:43;39.15;;;38.50;;
50417;SDS011;36346;48.280;14.292;2024-01-30T10:00:11;38.56;;;37.97;;
50417;SDS011;36346;48.280;14.292;2024-01-30T10:02:40;39.92;;;39.29;;
50417;SDS011;36346;48.280;14.292;2024-01-30T10:05:08;38.68;;;37.87;;
50417;SDS011;36346;48.280;14.292;2024-01-30T10:07:37;39.96;;;39.35;;
50417;SDS011;36346;48.280;14.292;2024-01-30T10:10:05;40.40;;;39.79;;
50417;SDS011;36346;48.280;14.292;2024-01-30T10:12:34;40.78;;;40.14;;
50417;SDS011;36346;48.280;14.292;2024-01-30T10:15:02;40.57;;;39.93;;
50417;SDS011;36346;48.280;14.292;2024-01-30T10:17:30;39.89;;;39.32;;
50417;SDS011;36346;48.280;14.292;2024-01-30T10:20:03;41.43;;;40.82;;
50417;SDS011;36346;48.280;14.292;2024-01-30T10:22:33;40.77;;;40.14;;
50417;SDS011;36346;48.280;14.292;2024-01-30T10:25:01;40.79;;;40.11;;
50417;SDS011;36346;48.280;14.292;2024-01-30T10:27:33;38.66;;;38.04;;
50417;SDS011;36346;48.280;14.292;2024-01-30T10:30:01;39.55;;;38.90;;
50417;SDS011;36346;48.280;14.292;2024-01-30T10:32:31;38.94;;;38.33;;
50417;SDS011;36346;48.280;14.292;2024-01-30T10:34:59;38.48;;;37.81;;
50417;SDS011;36346;48.280;14.292;2024-01-30T10:37:28;39.07;;;38.52;;
50417;SDS011;36346;48.280;14.292;2024-01-30T10:40:01;39.64;;;39.00;;
50417;SDS011;36346;48.280;14.292;2024-01-30T10:42:33;39.09;;;38.40;;
50417;SDS011;36346;48.280;14.292;2024-01-30T10:45:07;40.18;;;39.57;;
50417;SDS011;36346;48.280;14.292;2024-01-30T10:47:37;42.06;;;41.30;;
50417;SDS011;36346;48.280;14.292;2024-01-30T10:50:05;41.63;;;41.00;;
50417;SDS011;36346;48.280;14.292;2024-01-30T10:52:36;40.70;;;40.07;;
50417;SDS011;36346;48.280;14.292;2024-01-30T10:55:04;41.60;;;40.61;;
50417;SDS011;36346;48.280;14.292;2024-01-30T10:57:36;42.12;;;41.47;;
50417;SDS011;36346;48.280;14.292;2024-01-30T11:00:07;41.89;;;41.14;;
50417;SDS011;36346;48.280;14.292;2024-01-30T11:02:41;41.76;;;40.93;;
50417;SDS011;36346;48.280;14.292;2024-01-30T11:05:11;42.87;;;42.24;;
50417;SDS011;36346;48.280;14.292;2024-01-30T11:07:40;44.67;;;43.87;;
50417;SDS011;36346;48.280;14.292;2024-01-30T11:10:11;45.61;;;45.00;;
50417;SDS011;36346;48.280;14.292;2024-01-30T11:12:42;45.29;;;44.47;;
50417;SDS011;36346;48.280;14.292;2024-01-30T11:15:15;44.72;;;43.78;;
50417;SDS011;36346;48.280;14.292;2024-01-30T11:17:44;43.57;;;42.79;;
50417;SDS011;36346;48.280;14.292;2024-01-30T11:20:22;42.37;;;41.60;;
50417;SDS011;36346;48.280;14.292;2024-01-30T11:22:54;42.94;;;42.26;;
50417;SDS011;36346;48.280;14.292;2024-01-30T11:25:24;42.42;;;41.62;;
50417;SDS011;36346;48.280;14.292;2024-01-30T11:27:54;43.24;;;42.53;;
50417;SDS011;36346;48.280;14.292;2024-01-30T11:30:23;43.25;;;42.47;;
50417;SDS011;36346;48.280;14.292;2024-01-30T11:33:02;43.78;;;42.90;;
50417;SDS011;36346;48.280;14.292;2024-01-30T11:35:35;44.27;;;43.69;;
50417;SDS011;36346;48.280;14.292;2024-01-30T11:38:11;44.27;;;43.60;;
50417;SDS011;36346;48.280;14.292;2024-01-30T11:40:42;44.28;;;43.72;;
50417;SDS011;36346;48.280;14.292;2024-01-30T11:43:11;46.26;;;45.31;;
50417;SDS011;36346;48.280;14.292;2024-01-30T11:45:40;45.77;;;44.99;;
50417;SDS011;36346;48.280;14.292;2024-01-30T11:48:11;46.30;;;45.35;;
50417;SDS011;36346;48.280;14.292;2024-01-30T11:50:40;45.83;;;44.92;;
50417;SDS011;36346;48.280;14.292;2024-01-30T11:53:08;46.82;;;45.72;;
50417;SDS011;36346;48.280;14.292;2024-01-30T11:55:36;46.71;;;45.90;;
50417;SDS011;36346;48.280;14.292;2024-01-30T11:58:05;46.96;;;46.03;;
50417;SDS011;36346;48.280;14.292;2024-01-30T12:00:33;47.38;;;46.30;;
50417;SDS011;36346;48.280;14.292;2024-01-30T12:03:03;45.69;;;44.93;;
50417;SDS011;36346;48.280;14.292;2024-01-30T12:05:32;46.58;;;45.50;;
50417;SDS011;36346;48.280;14.292;2024-01-30T12:08:01;46.29;;;45.38;;
50417;SDS011;36346;48.280;14.292;2024-01-30T12:10:30;47.55;;;46.65;;
50417;SDS011;36346;48.280;14.292;2024-01-30T12:12:58;47.94;;;46.96;;
50417;SDS011;36346;48.280;14.292;2024-01-30T12:15:27;47.19;;;46.30;;
50417;SDS011;36346;48.280;14.292;2024-01-30T12:18:05;49.53;;;48.45;;
50417;SDS011;36346;48.280;14.292;2024-01-30T12:20:34;50.77;;;49.54;;
50417;SDS011;36346;48.280;14.292;2024-01-30T12:23:03;50.32;;;49.35;;
50417;SDS011;36346;48.280;14.292;2024-01-30T12:25:31;50.65;;;49.69;;
50417;SDS011;36346;48.280;14.292;2024-01-30T12:27:59;49.25;;;48.32;;
50417;SDS011;36346;48.280;14.292;2024-01-30T12:30:29;48.85;;;47.91;;
50417;SDS011;36346;48.280;14.292;2024-01-30T12:32:57;47.70;;;46.74;;
50417;SDS011;36346;48.280;14.292;2024-01-30T12:35:25;47.84;;;46.90;;
50417;SDS011;36346;48.280;14.292;2024-01-30T12:37:58;50.42;;;49.26;;
50417;SDS011;36346;48.280;14.292;2024-01-30T12:40:26;47.92;;;46.97;;
50417;SDS011;36346;48.280;14.292;2024-01-30T12:42:55;47.88;;;47.04;;
50417;SDS011;36346;48.280;14.292;2024-01-30T12:45:23;49.57;;;48.56;;
50417;SDS011;36346;48.280;14.292;2024-01-30T12:47:51;49.99;;;48.99;;
50417;SDS011;36346;48.280;14.292;2024-01-30T12:50:20;49.30;;;48.57;;
50417;SDS011;36346;48.280;14.292;2024-01-30T12:52:48;50.48;;;49.10;;
50417;SDS011;36346;48.280;14.292;2024-01-30T12:55:17;50.14;;;49.02;;
50417;SDS011;36346;48.280;14.292;2024-01-30T12:57:46;48.70;;;47.74;;
50417;SDS011;36346;48.280;14.292;2024-01-30T13:00:14;47.84;;;46.96;;
50417;SDS011;36346;48.280;14.292;2024-01-30T13:02:45;49.27;;;47.79;;
50417;SDS011;36346;48.280;14.292;2024-01-30T13:05:13;49.03;;;47.76;;
50417;SDS011;36346;48.280;14.292;2024-01-30T13:07:41;48.22;;;47.22;;
50417;SDS011;36346;48.280;14.292;2024-01-30T13:10:09;48.21;;;47.28;;
50417;SDS011;36346;48.280;14.292;2024-01-30T13:12:38;49.69;;;48.76;;
50417;SDS011;36346;48.280;14.292;2024-01-30T13:15:06;48.66;;;47.57;;
50417;SDS011;36346;48.280;14.292;2024-01-30T13:17:35;50.24;;;48.94;;
50417;SDS011;36346;48.280;14.292;2024-01-30T13:20:04;49.11;;;48.06;;
50417;SDS011;36346;48.280;14.292;2024-01-30T13:22:38;50.16;;;49.00;;
50417;SDS011;36346;48.280;14.292;2024-01-30T13:25:07;51.17;;;49.76;;
50417;SDS011;36346;48.280;14.292;2024-01-30T13:27:36;49.77;;;48.98;;
50417;SDS011;36346;48.280;14.292;2024-01-30T13:30:06;48.61;;;47.48;;
50417;SDS011;36346;48.280;14.292;2024-01-30T13:32:37;48.19;;;46.83;;
50417;SDS011;36346;48.280;14.292;2024-01-30T13:35:05;47.21;;;46.03;;
50417;SDS011;36346;48.280;14.292;2024-01-30T13:37:33;46.84;;;45.77;;
50417;SDS011;36346;48.280;14.292;2024-01-30T13:40:03;46.61;;;45.53;;
50417;SDS011;36346;48.280;14.292;2024-01-30T13:42:38;45.43;;;44.70;;
50417;SDS011;36346;48.280;14.292;2024-01-30T13:45:06;46.81;;;45.80;;
50417;SDS011;36346;48.280;14.292;2024-01-30T13:47:38;46.24;;;45.22;;
50417;SDS011;36346;48.280;14.292;2024-01-30T13:50:06;45.97;;;44.99;;
50417;SDS011;36346;48.280;14.292;2024-01-30T13:52:35;45.62;;;44.73;;
50417;SDS011;36346;48.280;14.292;2024-01-30T13:55:11;45.65;;;44.78;;
50417;SDS011;36346;48.280;14.292;2024-01-30T13:57:40;45.52;;;44.63;;
50417;SDS011;36346;48.280;14.292;2024-01-30T14:00:09;44.25;;;43.52;;
50417;SDS011;36346;48.280;14.292;2024-01-30T14:02:40;46.30;;;45.42;;
50417;SDS011;36346;48.280;14.292;2024-01-30T14:05:08;47.71;;;46.27;;
50417;SDS011;36346;48.280;14.292;2024-01-30T14:07:37;47.11;;;45.74;;
50417;SDS011;36346;48.280;14.292;2024-01-30T14:10:09;45.50;;;44.50;;
50417;SDS011;36346;48.280;14.292;2024-01-30T14:12:42;44.51;;;43.82;;
50417;SDS011;36346;48.280;14.292;2024-01-30T14:15:15;45.70;;;44.79;;
50417;SDS011;36346;48.280;14.292;2024-01-30T14:17:55;47.10;;;46.03;;